createdAt,value
2022-10-18T00:00:55.086Z,8.40
2022-10-18T00:03:22.203Z,9.20
2022-10-18T00:05:49.899Z,8.50
2022-10-18T00:08:18.382Z,8.37
2022-10-18T00:10:45.967Z,9.00
2022-10-18T00:13:12.877Z,8.90
2022-10-18T00:15:39.820Z,10.10
2022-10-18T00:18:06.724Z,8.60
2022-10-18T00:20:33.585Z,9.80
2022-10-18T00:23:00.498Z,8.87
2022-10-18T00:25:27.441Z,9.30
2022-10-18T00:27:54.362Z,8.63
2022-10-18T00:30:21.264Z,9.50
2022-10-18T00:32:48.290Z,9.03
2022-10-18T00:35:15.276Z,8.60
2022-10-18T00:37:42.221Z,9.40
2022-10-18T00:40:10.443Z,9.00
2022-10-18T00:42:38.315Z,8.87
2022-10-18T00:45:25.809Z,8.80
2022-10-18T00:48:04.618Z,8.93
2022-10-18T00:50:34.452Z,9.40
2022-10-18T00:53:06.767Z,7.77
2022-10-18T00:55:34.667Z,8.80
2022-10-18T00:58:02.100Z,8.70
2022-10-18T01:00:29.192Z,7.77
2022-10-18T01:02:58.470Z,9.23
2022-10-18T01:05:26.629Z,8.50
2022-10-18T01:08:25.548Z,9.00
2022-10-18T01:11:24.405Z,8.03
2022-10-18T01:14:00.084Z,8.60
2022-10-18T01:16:43.331Z,7.83
2022-10-18T01:19:36.323Z,8.70
2022-10-18T01:22:30.271Z,8.60
2022-10-18T01:25:07.089Z,8.83
2022-10-18T01:28:07.708Z,9.10
2022-10-18T01:30:51.561Z,9.10
2022-10-18T01:33:30.284Z,9.07
2022-10-18T01:36:13.125Z,9.30
2022-10-18T01:38:41.807Z,9.03
2022-10-18T01:41:14.822Z,8.87
2022-10-18T01:43:43.858Z,9.57
2022-10-18T01:46:13.764Z,8.43
2022-10-18T01:48:40.728Z,9.90
2022-10-18T01:51:07.639Z,9.50
2022-10-18T01:53:35.279Z,8.80
2022-10-18T01:56:23.887Z,8.40
2022-10-18T01:59:44.437Z,8.10
2022-10-18T02:02:45.397Z,7.80
2022-10-18T02:05:34.767Z,8.43
2022-10-18T02:08:23.857Z,8.27
2022-10-18T02:11:17.626Z,8.30
2022-10-18T02:13:56.668Z,8.73
2022-10-18T02:16:29.868Z,8.23
2022-10-18T02:19:02.912Z,6.73
2022-10-18T02:21:30.653Z,7.80
2022-10-18T02:23:59.339Z,8.40
2022-10-18T02:26:26.715Z,8.70
2022-10-18T02:28:53.941Z,7.40
2022-10-18T02:31:49.779Z,8.33
2022-10-18T02:34:53.881Z,8.07
2022-10-18T02:37:21.048Z,8.80
2022-10-18T02:39:50.987Z,7.90
2022-10-18T02:42:17.963Z,7.30
2022-10-18T02:44:44.958Z,8.20
2022-10-18T02:47:12.746Z,8.53
2022-10-18T02:49:39.937Z,8.20
2022-10-18T02:52:06.940Z,8.20
2022-10-18T02:54:33.839Z,7.43
2022-10-18T02:57:00.738Z,8.03
2022-10-18T02:59:27.697Z,8.47
2022-10-18T03:01:54.599Z,8.00
2022-10-18T03:04:21.652Z,8.20
2022-10-18T03:06:48.551Z,8.10
2022-10-18T03:09:15.554Z,8.43
2022-10-18T03:11:42.407Z,7.63
2022-10-18T03:14:09.386Z,8.40
2022-10-18T03:16:36.284Z,8.33
2022-10-18T03:19:03.397Z,8.50
2022-10-18T03:21:30.265Z,8.47
2022-10-18T03:23:58.628Z,8.07
2022-10-18T03:26:26.033Z,8.00
2022-10-18T03:28:53.249Z,7.80
2022-10-18T03:31:20.634Z,7.43
2022-10-18T03:33:47.696Z,7.93
2022-10-18T03:36:14.687Z,7.60
2022-10-18T03:38:42.215Z,7.13
2022-10-18T03:41:09.230Z,8.23
2022-10-18T03:43:36.211Z,9.33
2022-10-18T03:46:03.395Z,8.43
2022-10-18T03:48:30.359Z,8.97
2022-10-18T03:50:57.289Z,9.07
2022-10-18T03:53:24.196Z,9.10
2022-10-18T03:55:52.766Z,9.83
2022-10-18T03:58:20.456Z,8.40
2022-10-18T04:00:51.346Z,8.70
2022-10-18T04:03:19.647Z,8.57
2022-10-18T04:05:47.794Z,8.23
2022-10-18T04:08:15.499Z,8.23
2022-10-18T04:10:42.710Z,8.73
2022-10-18T04:13:10.107Z,8.57
2022-10-18T04:15:37.328Z,8.70
2022-10-18T04:18:04.440Z,9.00
2022-10-18T04:20:31.371Z,8.33
2022-10-18T04:22:58.388Z,7.87
2022-10-18T04:25:25.505Z,8.60
2022-10-18T04:27:52.525Z,8.03
2022-10-18T04:30:19.542Z,8.40
2022-10-18T04:32:46.413Z,8.20
2022-10-18T04:35:13.387Z,9.10
2022-10-18T04:37:40.401Z,8.70
2022-10-18T04:40:08.268Z,9.17
2022-10-18T04:42:35.218Z,8.50
2022-10-18T04:45:02.124Z,8.70
2022-10-18T04:47:29.112Z,9.13
2022-10-18T04:49:56.185Z,9.40
2022-10-18T04:52:23.118Z,9.20
2022-10-18T04:54:50.157Z,8.80
2022-10-18T04:57:17.684Z,8.60
2022-10-18T04:59:52.129Z,9.13
2022-10-18T05:02:21.470Z,9.33
2022-10-18T05:04:48.378Z,9.63
2022-10-18T05:07:16.248Z,9.80
2022-10-18T05:09:43.168Z,9.27
2022-10-18T05:12:10.011Z,9.07
2022-10-18T05:14:36.903Z,26.97
2022-10-18T05:17:03.879Z,20.40
2022-10-18T05:19:30.915Z,11.00
2022-10-18T05:21:57.859Z,9.30
2022-10-18T05:24:27.006Z,8.47
2022-10-18T05:26:54.952Z,8.77
2022-10-18T05:29:21.975Z,9.80
2022-10-18T05:31:50.174Z,10.03
2022-10-18T05:34:17.660Z,7.90
2022-10-18T05:36:44.611Z,8.80
2022-10-18T05:39:11.586Z,9.20
2022-10-18T05:41:38.509Z,9.17
2022-10-18T05:44:07.024Z,9.10
2022-10-18T05:46:35.919Z,9.10
2022-10-18T05:49:03.068Z,9.70
2022-10-18T05:51:30.036Z,10.70
2022-10-18T05:53:56.891Z,9.80
2022-10-18T05:56:24.085Z,8.97
2022-10-18T05:58:52.239Z,10.17
2022-10-18T06:01:19.693Z,8.73
2022-10-18T06:03:47.321Z,9.80
2022-10-18T06:06:15.089Z,9.77
2022-10-18T06:08:43.835Z,10.17
2022-10-18T06:11:17.020Z,10.47
2022-10-18T06:13:49.428Z,10.77
2022-10-18T06:16:20.596Z,10.60
2022-10-18T06:18:49.911Z,12.17
2022-10-18T06:21:17.690Z,10.73
2022-10-18T06:23:56.586Z,11.20
2022-10-18T06:26:24.110Z,11.00
2022-10-18T06:28:51.414Z,10.60
2022-10-18T06:31:18.796Z,12.23
2022-10-18T06:33:46.061Z,12.10
2022-10-18T06:36:16.567Z,10.80
2022-10-18T06:38:45.374Z,11.07
2022-10-18T06:41:12.253Z,14.30
2022-10-18T06:43:39.191Z,10.27
2022-10-18T06:46:08.412Z,11.17
2022-10-18T06:48:40.205Z,10.40
2022-10-18T06:51:08.752Z,11.60
2022-10-18T06:53:43.958Z,13.13
2022-10-18T06:56:20.279Z,10.73
2022-10-18T06:58:47.185Z,12.03
2022-10-18T07:01:16.969Z,11.67
2022-10-18T07:03:46.236Z,11.40
2022-10-18T07:06:16.492Z,11.63
2022-10-18T07:08:43.812Z,11.50
2022-10-18T07:11:18.366Z,11.23
2022-10-18T07:13:45.563Z,49.27
2022-10-18T07:16:18.421Z,21.30
2022-10-18T07:18:49.664Z,16.17
2022-10-18T07:21:22.747Z,17.93
2022-10-18T07:23:51.816Z,10.70
2022-10-18T07:26:29.104Z,10.00
2022-10-18T07:29:09.579Z,11.73
2022-10-18T07:31:38.665Z,11.20
2022-10-18T07:34:06.906Z,9.90
2022-10-18T07:36:34.350Z,11.27
2022-10-18T07:39:01.312Z,10.03
2022-10-18T07:41:29.081Z,11.90
2022-10-18T07:43:56.406Z,11.10
2022-10-18T07:46:23.593Z,11.93
2022-10-18T07:48:51.023Z,10.67
2022-10-18T07:51:20.071Z,10.10
2022-10-18T07:53:47.175Z,10.73
2022-10-18T07:56:20.655Z,11.23
2022-10-18T07:58:53.631Z,11.87
2022-10-18T08:01:25.632Z,10.90
2022-10-18T08:03:53.811Z,10.27
2022-10-18T08:06:22.775Z,10.73
2022-10-18T08:08:49.845Z,10.70
2022-10-18T08:11:20.360Z,11.97
2022-10-18T08:13:47.537Z,11.00
2022-10-18T08:16:21.267Z,10.43
2022-10-18T08:18:48.530Z,10.87
2022-10-18T08:21:17.707Z,9.90
2022-10-18T08:23:44.880Z,11.00
2022-10-18T08:26:16.356Z,10.13
2022-10-18T08:28:53.497Z,10.50
2022-10-18T08:31:25.749Z,10.90
2022-10-18T08:33:55.883Z,9.87
2022-10-18T08:36:22.860Z,9.80
2022-10-18T08:38:49.757Z,9.80
2022-10-18T08:41:37.299Z,10.30
2022-10-18T08:44:21.843Z,9.93
2022-10-18T08:47:00.778Z,9.97
2022-10-18T08:49:45.611Z,11.20
2022-10-18T08:52:35.900Z,10.63
2022-10-18T08:55:45.281Z,9.37
2022-10-18T08:58:23.742Z,9.53
2022-10-18T09:01:07.729Z,9.80
2022-10-18T09:04:07.894Z,9.03
2022-10-18T09:07:21.647Z,8.60
2022-10-18T09:10:08.808Z,9.30
2022-10-18T09:12:56.793Z,10.30
2022-10-18T09:15:29.881Z,9.20
2022-10-18T09:18:09.871Z,8.47
2022-10-18T09:20:59.928Z,8.80
2022-10-18T09:23:51.142Z,9.17
2022-10-18T09:26:24.483Z,8.20
2022-10-18T09:28:58.985Z,8.60
2022-10-18T09:32:04.740Z,8.27
2022-10-18T09:34:46.534Z,8.60
2022-10-18T09:37:18.834Z,7.57
2022-10-18T09:39:48.466Z,6.90
2022-10-18T09:42:32.020Z,6.93
2022-10-18T09:45:26.659Z,7.60
2022-10-18T09:48:27.951Z,9.37
2022-10-18T09:51:04.043Z,8.23
2022-10-18T09:53:42.870Z,8.00
2022-10-18T09:56:25.184Z,7.30
2022-10-18T09:58:52.451Z,7.80
2022-10-18T10:01:24.940Z,7.30
2022-10-18T10:03:53.296Z,7.77
2022-10-18T10:06:38.854Z,7.30
2022-10-18T10:09:15.003Z,6.87
2022-10-18T10:11:48.375Z,7.10
2022-10-18T10:14:23.526Z,7.50
2022-10-18T10:16:57.207Z,7.03
2022-10-18T10:19:38.308Z,6.83
2022-10-18T10:22:13.302Z,7.67
2022-10-18T10:24:45.337Z,7.13
2022-10-18T10:27:43.289Z,8.23
2022-10-18T10:30:30.306Z,7.87
2022-10-18T10:32:57.844Z,7.80
2022-10-18T10:35:53.105Z,7.57
2022-10-18T10:38:27.036Z,7.20
2022-10-18T10:40:55.349Z,7.90
2022-10-18T10:43:38.761Z,7.60
2022-10-18T10:46:20.884Z,7.33
2022-10-18T10:49:27.778Z,6.67
2022-10-18T10:52:02.539Z,6.33
2022-10-18T10:54:48.993Z,7.03
2022-10-18T10:57:27.556Z,7.37
2022-10-18T10:59:57.443Z,6.63
2022-10-18T11:02:35.289Z,7.27
2022-10-18T11:05:24.269Z,6.20
2022-10-18T11:07:55.706Z,6.80
2022-10-18T11:10:27.846Z,5.33
2022-10-18T11:13:18.869Z,6.10
2022-10-18T11:15:52.574Z,5.13
2022-10-18T11:18:28.434Z,6.33
2022-10-18T11:21:11.980Z,5.10
2022-10-18T11:23:41.940Z,5.77
2022-10-18T11:26:11.758Z,4.77
2022-10-18T11:29:19.607Z,4.73
2022-10-18T11:31:46.359Z,5.90
2022-10-18T11:34:37.081Z,5.03
2022-10-18T11:37:29.077Z,5.53
2022-10-18T11:40:15.615Z,5.93
2022-10-18T11:43:09.058Z,5.47
2022-10-18T11:45:57.782Z,6.00
2022-10-18T11:48:27.289Z,4.90
2022-10-18T11:51:29.764Z,4.40
2022-10-18T11:54:55.299Z,4.80
2022-10-18T11:57:51.745Z,5.03
2022-10-18T12:00:29.097Z,5.23
2022-10-18T12:03:29.831Z,5.10
2022-10-18T12:06:02.490Z,4.40
2022-10-18T12:08:44.504Z,4.80
2022-10-18T12:11:47.159Z,4.53
2022-10-18T12:14:51.490Z,5.03
2022-10-18T12:17:48.893Z,4.90
2022-10-18T12:20:31.338Z,5.17
2022-10-18T12:23:12.123Z,4.30
2022-10-18T12:25:44.036Z,4.37
2022-10-18T12:28:32.750Z,4.60
2022-10-18T12:31:22.395Z,4.10
2022-10-18T12:33:55.737Z,4.13
2022-10-18T12:36:22.469Z,4.40
2022-10-18T12:39:00.758Z,4.40
2022-10-18T12:41:34.526Z,4.30
2022-10-18T12:44:24.813Z,4.23
2022-10-18T12:46:59.176Z,4.50
2022-10-18T12:49:32.208Z,4.73
2022-10-18T12:52:04.028Z,4.50
2022-10-18T12:54:35.894Z,4.33
2022-10-18T12:57:23.039Z,4.53
2022-10-18T12:59:50.075Z,4.70
2022-10-18T13:02:24.770Z,8.50
2022-10-18T13:04:51.987Z,5.70
2022-10-18T13:07:35.353Z,4.07
2022-10-18T13:10:12.352Z,4.70
2022-10-18T13:12:54.027Z,4.83
2022-10-18T13:15:54.127Z,4.87
2022-10-18T13:18:43.150Z,4.93
2022-10-18T13:21:23.906Z,5.10
2022-10-18T13:24:30.879Z,4.50
2022-10-18T13:27:35.027Z,4.53
2022-10-18T13:30:16.015Z,5.10
2022-10-18T13:33:02.300Z,4.50
2022-10-18T13:35:55.771Z,5.20
2022-10-18T13:38:42.360Z,4.97
2022-10-18T13:43:56.541Z,4.37
2022-10-18T13:46:33.810Z,5.37
2022-10-18T13:49:39.292Z,4.73
2022-10-18T13:52:27.396Z,4.50
2022-10-18T13:55:31.514Z,4.70
2022-10-18T13:58:32.070Z,5.00
2022-10-18T14:01:20.567Z,4.70
2022-10-18T14:04:16.558Z,4.67
2022-10-18T14:06:46.368Z,4.60
2022-10-18T14:09:26.384Z,4.87
2022-10-18T14:12:23.769Z,5.23
2022-10-18T14:15:14.047Z,5.37
2022-10-18T14:17:52.425Z,5.03
2022-10-18T14:20:48.704Z,5.30
2022-10-18T14:23:22.042Z,4.90
2022-10-18T14:25:49.268Z,4.87
2022-10-18T14:28:31.580Z,4.80
2022-10-18T14:31:19.774Z,5.10
2022-10-18T14:33:57.240Z,4.90
2022-10-18T14:36:30.366Z,5.50
2022-10-18T14:39:03.973Z,5.23
2022-10-18T14:41:38.439Z,5.20
2022-10-18T14:44:14.384Z,6.20
2022-10-18T14:46:49.657Z,6.63
2022-10-18T14:49:17.859Z,5.90
2022-10-18T14:51:48.954Z,5.80
2022-10-18T14:54:30.676Z,6.37
2022-10-18T14:57:02.909Z,5.27
2022-10-18T14:59:34.702Z,5.87
2022-10-18T15:02:18.034Z,6.17
2022-10-18T15:04:47.602Z,6.83
2022-10-18T15:07:17.519Z,7.13
2022-10-18T15:09:45.858Z,6.77
2022-10-18T15:12:15.027Z,6.63
2022-10-18T15:14:42.698Z,7.43
2022-10-18T15:17:19.166Z,7.20
2022-10-18T15:20:00.527Z,7.23
2022-10-18T15:22:33.118Z,6.97
2022-10-18T15:25:14.776Z,7.63
2022-10-18T15:27:51.654Z,7.50
2022-10-18T15:30:30.061Z,8.30
2022-10-18T15:33:00.462Z,8.30
2022-10-18T15:35:36.421Z,10.33
2022-10-18T15:38:27.339Z,11.43
2022-10-18T15:40:55.329Z,12.73
2022-10-18T15:43:28.448Z,12.90
2022-10-18T15:46:05.385Z,14.93
2022-10-18T15:48:39.911Z,15.77
2022-10-18T15:51:47.100Z,16.10
2022-10-18T15:54:30.351Z,16.50
2022-10-18T15:56:57.406Z,17.17
2022-10-18T15:59:28.777Z,17.03
2022-10-18T16:01:55.917Z,17.57
2022-10-18T16:04:31.303Z,17.70
2022-10-18T16:06:59.496Z,18.50
2022-10-18T16:09:28.686Z,19.37
2022-10-18T16:11:57.397Z,16.90
2022-10-18T16:14:26.189Z,16.60
2022-10-18T16:17:02.021Z,13.03
2022-10-18T16:19:30.364Z,13.57
2022-10-18T16:21:59.241Z,12.30
2022-10-18T16:24:28.066Z,11.10
2022-10-18T16:26:55.042Z,11.70
2022-10-18T16:29:28.744Z,13.03
2022-10-18T16:31:58.209Z,12.00
2022-10-18T16:34:28.992Z,12.83
2022-10-18T16:36:55.974Z,11.50
2022-10-18T16:39:23.855Z,11.23
2022-10-18T16:41:51.357Z,11.70
2022-10-18T16:44:19.236Z,10.70
2022-10-18T16:46:50.951Z,10.03
2022-10-18T16:49:24.651Z,10.60
2022-10-18T16:51:53.974Z,9.57
2022-10-18T16:54:21.008Z,10.67
2022-10-18T16:56:49.932Z,9.10
2022-10-18T16:59:29.028Z,9.33
2022-10-18T17:01:56.141Z,8.20
2022-10-18T17:04:23.044Z,9.63
2022-10-18T17:06:50.423Z,9.30
2022-10-18T17:09:20.238Z,10.03
2022-10-18T17:11:47.195Z,9.23
2022-10-18T17:14:15.468Z,8.80
2022-10-18T17:16:44.523Z,10.07
2022-10-18T17:19:14.862Z,10.20
2022-10-18T17:21:41.735Z,9.90
2022-10-18T17:24:08.635Z,8.63
2022-10-18T17:26:35.581Z,9.40
2022-10-18T17:29:08.084Z,9.70
2022-10-18T17:31:35.802Z,9.03
2022-10-18T17:34:03.659Z,8.60
2022-10-18T17:36:32.462Z,8.90
2022-10-18T17:38:59.817Z,9.70
2022-10-18T17:41:26.954Z,10.10
2022-10-18T17:43:53.798Z,10.30
2022-10-18T17:46:21.135Z,10.47
2022-10-18T17:48:48.257Z,9.30
2022-10-18T17:51:17.444Z,9.77
2022-10-18T17:53:44.942Z,10.50
2022-10-18T17:56:13.402Z,9.70
2022-10-18T17:58:43.478Z,8.70
2022-10-18T18:01:11.835Z,10.27
2022-10-18T18:03:39.289Z,9.67
2022-10-18T18:06:31.852Z,8.67
2022-10-18T18:09:01.724Z,10.37
2022-10-18T18:11:29.368Z,9.10
2022-10-18T18:13:56.493Z,8.60
2022-10-18T18:16:27.260Z,11.40
2022-10-18T18:18:58.215Z,10.47
2022-10-18T18:21:26.455Z,9.80
2022-10-18T18:23:53.818Z,9.00
2022-10-18T18:26:22.347Z,9.80
2022-10-18T18:28:49.760Z,10.20
2022-10-18T18:31:23.442Z,9.23
2022-10-18T18:33:56.021Z,10.27
2022-10-18T18:36:25.057Z,10.67
2022-10-18T18:38:56.837Z,9.70
2022-10-18T18:41:27.119Z,9.43
2022-10-18T18:44:00.806Z,9.60
2022-10-18T18:46:32.915Z,10.03
2022-10-18T18:49:00.484Z,9.20
2022-10-18T18:51:28.508Z,10.10
2022-10-18T18:53:55.491Z,9.80
2022-10-18T18:56:26.036Z,10.17
2022-10-18T18:58:54.162Z,10.60
2022-10-18T19:01:27.416Z,10.80
2022-10-18T19:03:55.980Z,10.80
2022-10-18T19:06:33.106Z,11.20
2022-10-18T19:09:05.387Z,11.40
2022-10-18T19:11:37.730Z,12.07
2022-10-18T19:14:06.848Z,10.00
2022-10-18T19:16:34.547Z,10.87
2022-10-18T19:19:14.771Z,10.40
2022-10-18T19:21:49.161Z,9.70
2022-10-18T19:24:16.445Z,10.80
2022-10-18T19:26:47.081Z,9.90
2022-10-18T19:29:37.426Z,9.77
2022-10-18T19:32:07.696Z,10.40
2022-10-18T19:34:35.155Z,10.10
2022-10-18T19:37:02.609Z,10.47
2022-10-18T19:39:32.837Z,10.97
2022-10-18T19:42:03.950Z,9.27
2022-10-18T19:44:34.119Z,9.67
2022-10-18T19:47:01.095Z,10.30
2022-10-18T19:49:28.765Z,10.00
2022-10-18T19:51:56.735Z,10.70
2022-10-18T19:54:24.601Z,9.30
2022-10-18T19:56:51.631Z,9.87
2022-10-18T19:59:19.339Z,9.20
2022-10-18T20:01:46.357Z,10.10
2022-10-18T20:04:14.064Z,10.50
2022-10-18T20:06:42.085Z,9.73
2022-10-18T20:09:13.426Z,10.00
2022-10-18T20:11:43.224Z,9.70
2022-10-18T20:14:10.795Z,11.50
2022-10-18T20:16:37.784Z,10.13
2022-10-18T20:19:07.558Z,10.43
2022-10-18T20:21:35.940Z,11.13
2022-10-18T20:24:05.539Z,10.40
2022-10-18T20:26:33.007Z,10.07
2022-10-18T20:29:00.193Z,10.80
2022-10-18T20:31:35.434Z,10.00
2022-10-18T20:34:06.091Z,9.80
2022-10-18T20:36:34.336Z,11.40
2022-10-18T20:39:02.148Z,9.83
2022-10-18T20:41:32.633Z,10.70
2022-10-18T20:44:07.008Z,10.03
2022-10-18T20:46:37.214Z,10.47
2022-10-18T20:49:06.441Z,10.87
2022-10-18T20:51:34.503Z,10.10
2022-10-18T20:56:34.307Z,9.67
2022-10-18T20:59:01.964Z,10.00
2022-10-18T21:01:34.190Z,9.63
2022-10-18T21:04:04.438Z,9.40
2022-10-18T21:06:43.640Z,10.37
2022-10-18T21:09:17.227Z,9.90
2022-10-18T21:11:49.282Z,10.80
2022-10-18T21:14:19.658Z,10.40
2022-10-18T21:16:47.788Z,9.80
2022-10-18T21:19:26.691Z,9.90
2022-10-18T21:21:56.777Z,10.43
2022-10-18T21:24:25.806Z,12.00
2022-10-18T21:26:53.431Z,10.77
2022-10-18T21:29:22.650Z,10.00
2022-10-18T21:31:55.718Z,12.20
2022-10-18T21:34:22.673Z,14.80
2022-10-18T21:36:49.818Z,15.47
2022-10-18T21:41:54.704Z,13.07
2022-10-18T21:44:21.745Z,12.33
2022-10-18T21:46:48.867Z,11.13
2022-10-18T21:49:16.091Z,11.27
2022-10-18T21:51:43.846Z,10.60
2022-10-18T21:54:15.336Z,9.70
2022-10-18T21:56:42.558Z,10.90
2022-10-18T21:59:14.191Z,11.70
2022-10-18T22:01:42.709Z,10.60
2022-10-18T22:04:20.463Z,12.33
2022-10-18T22:06:47.583Z,11.47
2022-10-18T22:09:14.533Z,11.70
2022-10-18T22:11:49.260Z,12.30
2022-10-18T22:14:16.125Z,10.90
2022-10-18T22:16:43.281Z,12.20
2022-10-18T22:19:10.275Z,12.10
2022-10-18T22:21:37.235Z,12.00
2022-10-18T22:24:07.471Z,12.07
2022-10-18T22:26:38.629Z,12.33
2022-10-18T22:29:13.156Z,12.97
2022-10-18T22:31:44.470Z,12.80
2022-10-18T22:34:16.230Z,11.77
2022-10-18T22:36:43.534Z,11.70
2022-10-18T22:39:13.050Z,13.93
2022-10-18T22:41:40.580Z,13.67
2022-10-18T22:44:12.064Z,13.30
2022-10-18T22:46:40.234Z,11.17
2022-10-18T22:49:07.740Z,10.97
2022-10-18T22:54:07.739Z,11.07
2022-10-18T22:56:34.801Z,10.30
2022-10-18T22:59:01.730Z,10.67
2022-10-18T23:01:28.778Z,11.53
2022-10-18T23:03:58.786Z,11.77
2022-10-18T23:06:29.720Z,12.37
2022-10-18T23:08:58.694Z,12.87
2022-10-18T23:11:27.879Z,13.70
2022-10-18T23:13:54.971Z,13.67
2022-10-18T23:16:22.598Z,14.77
2022-10-18T23:18:55.865Z,14.00
2022-10-18T23:21:25.509Z,14.70
2022-10-18T23:23:53.541Z,14.80
2022-10-18T23:26:26.992Z,14.50
2022-10-18T23:28:54.283Z,14.37
2022-10-18T23:31:31.576Z,14.07
2022-10-18T23:34:01.748Z,14.73
2022-10-18T23:36:29.915Z,15.53
2022-10-18T23:38:57.515Z,15.43
2022-10-18T23:41:25.470Z,14.50
2022-10-18T23:43:52.739Z,14.70
2022-10-18T23:46:20.266Z,12.87
2022-10-18T23:48:48.499Z,14.90
2022-10-18T23:51:16.941Z,13.03
2022-10-18T23:53:43.848Z,13.37
2022-10-18T23:56:14.592Z,12.97
2022-10-18T23:58:42.517Z,12.70
